Madeline — WDE3220 — position and weather

sailwx.info

Track history (hours):
 
Tides and Currents Weather Stations Pressure Air Temp Water Temp Dewpoint Dewpoint Depression Visibility Wind Speed Wind Dir Waves Ship Positions

Madeline

Owner: TUG MADELINE, LLC, NEW CASTLE, DE. More information available from US FCC via Universal Licensing System and Coast Guard Vessel Documentation Center.

Last reported at 2016-Jun-28 14:33 UTC. Time now 2016-Jun-28 15:10 UTC.
Position N 39°43' W 075°30'.

; draft 4.6 m.

Type: Tug. MMSI: 367335830.

Date/timePositionNaut miles runAvg speedWind from/ knotsBaromVisibWave heightAir tempDewpointWater temp
2016-Jun-28 14:33N 39°43' W 075°30'7 7.3
2016-Jun-28 13:33N 39°37' W 075°36'2 2.3
2016-Jun-28 12:33N 39°35' W 075°35'1 1.2
2016-Jun-28 11:33N 39°34' W 075°34'1 1.2
2016-Jun-28 10:33N 39°36' W 075°34'9 9.0
2016-Jun-28 09:33N 39°44' W 075°30'7 6.7
2016-Jun-28 08:33N 39°49' W 075°24'2 1.9
2016-Jun-28 07:33N 39°48' W 075°26'0 0.0
2016-Jun-28 06:33N 39°48' W 075°26'0 0.0
2016-Jun-28 04:33N 39°48' W 075°26'2 1.9
2016-Jun-28 03:33N 39°49' W 075°24'6 6.1
2016-Jun-28 02:33N 39°51' W 075°16'5 5.4
2016-Jun-28 01:33N 39°53' W 075°10'0 0.1
2016-Jun-28 00:33N 39°53' W 075°10'1 1.2
2016-Jun-27 23:33N 39°53' W 075°11'1 1.3
2016-Jun-27 22:33N 39°53' W 075°09'2 2.0
2016-Jun-27 21:33N 39°53' W 075°12'1 1.0
2016-Jun-27 20:33N 39°53' W 075°11'0 0.0
2016-Jun-27 19:33N 39°53' W 075°11'0 0.0
2016-Jun-27 18:33N 39°53' W 075°11'0 0.0
2016-Jun-27 17:33N 39°53' W 075°11'0 0.0
2016-Jun-27 16:33N 39°53' W 075°11'0 0.0
2016-Jun-27 15:33N 39°53' W 075°11'0 0.0
2016-Jun-27 14:33N 39°53' W 075°11'5 4.6
2016-Jun-27 13:34N 39°57' W 075°08'3 2.7
2016-Jun-27 12:33N 39°59' W 075°05'0 0.1
2016-Jun-27 11:34N 39°59' W 075°05'0 0.0
2016-Jun-27 10:33N 39°59' W 075°05'0 0.0
2016-Jun-27 09:33N 39°59' W 075°05'0 0.0
2016-Jun-27 08:33N 39°59' W 075°05'0 0.0
2016-Jun-27 07:34N 39°59' W 075°05'0 0.0
2016-Jun-27 06:33N 39°59' W 075°05'0 0.0
2016-Jun-27 05:33N 39°59' W 075°05'0 0.0
2016-Jun-27 04:33N 39°59' W 075°05'0 0.0
2016-Jun-27 03:33N 39°59' W 075°05'0 0.0
2016-Jun-27 02:33N 39°59' W 075°05'0 0.0
2016-Jun-27 01:33N 39°59' W 075°05'0 0.0
2016-Jun-27 00:33N 39°59' W 075°05'0 0.4
2016-Jun-26 23:33N 39°58' W 075°06'0 0.1
2016-Jun-26 22:33N 39°59' W 075°06'0 0.0
2016-Jun-26 21:33N 39°59' W 075°06'0 0.0
2016-Jun-26 20:33N 39°59' W 075°06'0 0.0
2016-Jun-26 19:33N 39°59' W 075°06'0 0.0
2016-Jun-26 18:33N 39°59' W 075°06'4 4.4
2016-Jun-26 17:33N 39°55' W 075°08'3 2.9
2016-Jun-26 16:33N 39°53' W 075°11'0 0.0
2016-Jun-26 15:33N 39°53' W 075°11'0 0.0
2016-Jun-26 14:33N 39°53' W 075°11'0 0.0
2016-Jun-26 13:33N 39°53' W 075°11'0 0.0
2016-Jun-26 12:33N 39°53' W 075°11'2 2.0
2016-Jun-26 11:33N 39°55' W 075°13'2 2.1
2016-Jun-26 10:33N 39°53' W 075°12'1 0.8
2016-Jun-26 09:33N 39°53' W 075°11'0 0.0
2016-Jun-26 08:33N 39°53' W 075°11'0 0.0
2016-Jun-26 07:33N 39°53' W 075°11'0 0.0
2016-Jun-26 06:33N 39°53' W 075°11'0 0.0
2016-Jun-26 05:33N 39°53' W 075°11'0 0.0
2016-Jun-26 04:33N 39°53' W 075°11'1 1.3
2016-Jun-26 03:33N 39°53' W 075°10'1 0.7
2016-Jun-26 02:33N 39°53' W 075°10'1 0.6
2016-Jun-26 01:33N 39°53' W 075°11'0 0.0
2016-Jun-26 00:33N 39°53' W 075°11'0 0.0
2016-Jun-25 23:33N 39°53' W 075°11'0 0.0
2016-Jun-25 22:33N 39°53' W 075°11'0 0.0
2016-Jun-25 21:33N 39°53' W 075°11'0 0.0
2016-Jun-25 20:33N 39°53' W 075°11'0 0.0
2016-Jun-25 19:33N 39°53' W 075°11'0 0.0
2016-Jun-25 18:33N 39°53' W 075°11'0 0.0
2016-Jun-25 17:33N 39°53' W 075°11'0 0.0
2016-Jun-25 16:33N 39°53' W 075°11'0 0.0
2016-Jun-25 15:33N 39°53' W 075°11'0 0.0
2016-Jun-25 14:33N 39°53' W 075°11'0 0.0
2016-Jun-25 13:33N 39°53' W 075°11'0 0.0
2016-Jun-25 12:33N 39°53' W 075°11'2 2.1
2016-Jun-25 11:33N 39°53' W 075°08'6 5.5
2016-Jun-25 10:33N 39°59' W 075°06'0 0.0
2016-Jun-25 09:33N 39°59' W 075°06'0 0.0
2016-Jun-25 08:33N 39°59' W 075°06'0 0.0
2016-Jun-25 07:33N 39°59' W 075°06'0 0.0
2016-Jun-25 06:33N 39°59' W 075°06'0 0.0
2016-Jun-25 05:33N 39°59' W 075°06'0 0.2
2016-Jun-25 04:33N 39°58' W 075°06'7 6.6
2016-Jun-25 03:33N 39°53' W 075°11'0 0.0
2016-Jun-25 02:33N 39°53' W 075°11'0 0.0
2016-Jun-25 01:33N 39°53' W 075°11'0 0.0
2016-Jun-25 00:33N 39°53' W 075°11'0 0.0
2016-Jun-24 23:33N 39°53' W 075°11'0 0.0
2016-Jun-24 22:33N 39°53' W 075°11'0 0.0
2016-Jun-24 21:33N 39°53' W 075°11'6 6.1
2016-Jun-24 20:33N 39°51' W 075°19'2 1.5
2016-Jun-24 19:33N 39°51' W 075°21'0 0.0
2016-Jun-24 18:33N 39°51' W 075°21'4 4.2
2016-Jun-24 17:33N 39°48' W 075°25'5 5.0
2016-Jun-24 16:33N 39°51' W 075°19'7 6.6
2016-Jun-24 15:33N 39°53' W 075°11'0 0.0
2016-Jun-24 14:33N 39°53' W 075°11'0 0.0
2016-Jun-24 13:33N 39°53' W 075°11'0 0.0
2016-Jun-24 12:33N 39°53' W 075°11'0 0.0
2016-Jun-24 11:33N 39°53' W 075°11'0 0.0
2016-Jun-24 10:33N 39°53' W 075°11'0 0.0
2016-Jun-24 09:33N 39°53' W 075°11'0 0.0
2016-Jun-24 08:33N 39°53' W 075°11'0 0.0
2016-Jun-24 07:33N 39°53' W 075°11'0 0.0
2016-Jun-24 04:33N 39°53' W 075°11'0 0.0
2016-Jun-24 03:33N 39°53' W 075°11'2 1.8
2016-Jun-24 02:33N 39°52' W 075°13'1 0.6
2016-Jun-24 01:33N 39°52' W 075°14'2 1.8
2016-Jun-24 00:33N 39°51' W 075°16'0 0.0
2016-Jun-23 23:33N 39°51' W 075°16'0 0.0
2016-Jun-23 22:33N 39°51' W 075°16'0 0.0
2016-Jun-23 21:33N 39°51' W 075°16'0 0.0
2016-Jun-23 20:33N 39°51' W 075°16'0 0.0
2016-Jun-23 19:33N 39°51' W 075°16'0 0.0
2016-Jun-23 18:33N 39°51' W 075°16'0 0.0
2016-Jun-23 17:33N 39°51' W 075°16'8 8.1
2016-Jun-23 16:34N 39°48' W 075°26'6 5.8
2016-Jun-23 15:33N 39°51' W 075°19'3 2.6
2016-Jun-23 14:33N 39°51' W 075°16'0 0.0
2016-Jun-23 13:33N 39°51' W 075°16'0 0.0
2016-Jun-23 12:33N 39°51' W 075°16'0 0.4
2016-Jun-23 11:33N 39°51' W 075°16'0 0.0
2016-Jun-23 10:33N 39°51' W 075°16'1 1.0
2016-Jun-23 09:33N 39°51' W 075°17'5 5.4
2016-Jun-23 08:33N 39°53' W 075°11'0 0.0
2016-Jun-23 07:34N 39°53' W 075°11'0 0.0
2016-Jun-23 05:33N 39°53' W 075°11'0 0.0
2016-Jun-23 04:33N 39°53' W 075°11'0 0.0
2016-Jun-23 03:34N 39°53' W 075°11'0 0.0
2016-Jun-23 02:34N 39°53' W 075°11'1 1.3
2016-Jun-23 01:33N 39°53' W 075°09'2 1.8
2016-Jun-23 00:33N 39°54' W 075°08'0 0.0
2016-Jun-22 23:33N 39°54' W 075°08'0 0.3
2016-Jun-22 22:33N 39°54' W 075°08'3 3.4
2016-Jun-22 21:33N 39°58' W 075°08'2 2.2
2016-Jun-22 20:33N 39°59' W 075°05'0 0.2
2016-Jun-22 19:33N 39°59' W 075°06'3 2.8
2016-Jun-22 18:33N 39°57' W 075°08'3 2.8
2016-Jun-22 17:33N 39°54' W 075°08'0 0.0
2016-Jun-22 16:33N 39°54' W 075°08'0 0.0
2016-Jun-22 15:33N 39°54' W 075°08'0 0.0
2016-Jun-22 14:33N 39°54' W 075°08'0 0.0
2016-Jun-22 13:33N 39°54' W 075°08'0 0.0
2016-Jun-22 12:33N 39°54' W 075°08'0 0.0
2016-Jun-22 11:33N 39°54' W 075°08'1 0.5
2016-Jun-22 10:33N 39°53' W 075°08'1 0.5
2016-Jun-22 09:33N 39°54' W 075°08'0 0.0
2016-Jun-22 08:33N 39°54' W 075°08'0 0.0
2016-Jun-22 07:33N 39°54' W 075°08'0 0.0
2016-Jun-22 06:33N 39°54' W 075°08'0 0.0
2016-Jun-22 05:33N 39°54' W 075°08'3 2.6
2016-Jun-22 04:33N 39°53' W 075°12'1 0.5
2016-Jun-22 03:33N 39°53' W 075°11'0 0.0
2016-Jun-22 02:33N 39°53' W 075°11'0 0.0
2016-Jun-22 01:33N 39°53' W 075°11'0 0.0
2016-Jun-22 00:33N 39°53' W 075°11'0 0.0
2016-Jun-21 23:33N 39°53' W 075°11'0 0.0
2016-Jun-21 22:33N 39°53' W 075°11'0 0.0
2016-Jun-21 21:33N 39°53' W 075°11'0 0.0
2016-Jun-21 20:33N 39°53' W 075°11'0 0.0
2016-Jun-21 19:33N 39°53' W 075°11'0 0.0
2016-Jun-21 18:33N 39°53' W 075°11'0 0.0
2016-Jun-21 17:33N 39°53' W 075°11'0 0.0
2016-Jun-21 16:33N 39°53' W 075°11'0 0.0
2016-Jun-21 15:33N 39°53' W 075°11'0 0.0
2016-Jun-21 14:33N 39°53' W 075°11'0 0.0
2016-Jun-21 13:33N 39°53' W 075°11'0 0.0
2016-Jun-21 12:33N 39°53' W 075°11'0 0.0
2016-Jun-21 11:33N 39°53' W 075°11'0 0.0
2016-Jun-21 10:33N 39°53' W 075°11'0 0.0
2016-Jun-21 09:33N 39°53' W 075°11'0 0.0
2016-Jun-21 08:33N 39°53' W 075°11'0 0.0
2016-Jun-21 07:33N 39°53' W 075°11'0 0.0
2016-Jun-21 05:33N 39°53' W 075°11'0 0.0
2016-Jun-21 04:33N 39°53' W 075°11'0 0.0
2016-Jun-21 03:33N 39°53' W 075°11'0 0.0
2016-Jun-21 02:33N 39°53' W 075°11'0 0.0
2016-Jun-21 01:33N 39°53' W 075°11'0 0.0
2016-Jun-21 00:33N 39°53' W 075°11'0 0.0
2016-Jun-20 23:33N 39°53' W 075°11'0 0.0
2016-Jun-20 22:33N 39°53' W 075°11'2 1.7
2016-Jun-20 21:33N 39°53' W 075°09'2 1.7
2016-Jun-20 20:33N 39°53' W 075°11'0 0.0
2016-Jun-20 19:33N 39°53' W 075°11'0 0.0
2016-Jun-20 18:33N 39°53' W 075°11'1 1.5
2016-Jun-20 17:33N 39°52' W 075°13'1212.5
2016-Jun-20 16:33N 39°47' W 075°27'5 2.5
2016-Jun-20 14:33N 39°43' W 075°31'0 0.0
2016-Jun-20 13:33N 39°43' W 075°31'0 0.0
2016-Jun-20 12:33N 39°43' W 075°31'10 9.6
2016-Jun-20 11:33N 39°50' W 075°22'1211.7
2016-Jun-20 10:33N 39°54' W 075°08'6 5.7
2016-Jun-20 09:33N 39°59' W 075°04'1 0.9
2016-Jun-20 08:33N 39°59' W 075°05'0 0.0
2016-Jun-20 07:33N 39°59' W 075°05'0 0.0
2016-Jun-20 06:33N 39°59' W 075°05'0 0.0
2016-Jun-20 05:33N 39°59' W 075°05'0 0.0
2016-Jun-20 04:33N 39°59' W 075°05'0 0.0
2016-Jun-20 03:33N 39°59' W 075°05'4 3.8
2016-Jun-20 02:33N 39°56' W 075°08'3 3.3
2016-Jun-20 01:33N 39°53' W 075°11'0 0.0
2016-Jun-20 00:33N 39°53' W 075°11'0 0.0
2016-Jun-19 23:33N 39°53' W 075°11'0 0.0
2016-Jun-19 22:33N 39°53' W 075°11'0 0.0
2016-Jun-19 21:33N 39°53' W 075°11'0 0.0
2016-Jun-19 20:33N 39°53' W 075°11'0 0.0
2016-Jun-19 19:33N 39°53' W 075°11'0 0.0
2016-Jun-19 18:33N 39°53' W 075°11'0 0.0
2016-Jun-19 17:33N 39°53' W 075°11'0 0.0
2016-Jun-19 16:33N 39°53' W 075°11'2 1.6
2016-Jun-19 15:33N 39°54' W 075°13'1 1.1
2016-Jun-19 14:33N 39°55' W 075°12'0 0.0
2016-Jun-19 13:33N 39°55' W 075°12'0 0.0
2016-Jun-19 12:33N 39°55' W 075°12'0 0.0
2016-Jun-19 11:33N 39°55' W 075°12'0 0.0
2016-Jun-19 10:33N 39°55' W 075°12'0 0.0
2016-Jun-19 09:33N 39°55' W 075°12'0 0.0
2016-Jun-19 08:33N 39°55' W 075°12'0 0.0
2016-Jun-19 07:33N 39°55' W 075°12'0 0.0
2016-Jun-19 06:33N 39°55' W 075°12'0 0.0
2016-Jun-19 05:33N 39°55' W 075°12'0 0.0
2016-Jun-19 04:33N 39°55' W 075°12'0 0.0
2016-Jun-19 03:33N 39°55' W 075°12'2 1.7
2016-Jun-19 02:33N 39°53' W 075°12'2 2.0
2016-Jun-19 01:34N 39°53' W 075°09'0 0.1
2016-Jun-19 00:33N 39°53' W 075°09'1 1.5
2016-Jun-18 23:33N 39°53' W 075°11'0 0.0
2016-Jun-18 22:33N 39°53' W 075°11'0 0.0
2016-Jun-18 21:33N 39°53' W 075°11'0 0.0
2016-Jun-18 20:33N 39°53' W 075°11'0 0.0
2016-Jun-18 19:33N 39°53' W 075°11'0 0.0
2016-Jun-18 18:33N 39°53' W 075°11'0 0.0
2016-Jun-18 17:34N 39°53' W 075°11'0 0.0
2016-Jun-18 16:33N 39°53' W 075°11'0 0.0
2016-Jun-18 15:33N 39°53' W 075°11'0 0.0
2016-Jun-18 14:33N 39°53' W 075°11'  
Track history (hours):
 
Tides and Currents Weather Stations Pressure Air Temp Water Temp Dewpoint Dewpoint Depression Visibility Wind Speed Wind Dir Waves Ship Positions

Madeline

Owner: TUG MADELINE, LLC, NEW CASTLE, DE. More information available from US FCC via Universal Licensing System and Coast Guard Vessel Documentation Center.

Last reported at 2016-Jun-28 14:33 UTC. Time now 2016-Jun-28 15:10 UTC.
Position N 39°43' W 075°30'.

; draft 4.6 m.

Type: Tug. MMSI: 367335830.

Date/timePositionNaut miles runAvg speedWind from/ knotsBaromVisibWave heightAir tempDewpointWater temp
2016-Jun-28 14:33N 39°43' W 075°30'7 7.3
2016-Jun-28 13:33N 39°37' W 075°36'2 2.3
2016-Jun-28 12:33N 39°35' W 075°35'1 1.2
2016-Jun-28 11:33N 39°34' W 075°34'1 1.2
2016-Jun-28 10:33N 39°36' W 075°34'9 9.0
2016-Jun-28 09:33N 39°44' W 075°30'7 6.7
2016-Jun-28 08:33N 39°49' W 075°24'2 1.9
2016-Jun-28 07:33N 39°48' W 075°26'0 0.0
2016-Jun-28 06:33N 39°48' W 075°26'0 0.0
2016-Jun-28 04:33N 39°48' W 075°26'2 1.9
2016-Jun-28 03:33N 39°49' W 075°24'6 6.1
2016-Jun-28 02:33N 39°51' W 075°16'5 5.4
2016-Jun-28 01:33N 39°53' W 075°10'0 0.1
2016-Jun-28 00:33N 39°53' W 075°10'1 1.2
2016-Jun-27 23:33N 39°53' W 075°11'1 1.3
2016-Jun-27 22:33N 39°53' W 075°09'2 2.0
2016-Jun-27 21:33N 39°53' W 075°12'1 1.0
2016-Jun-27 20:33N 39°53' W 075°11'0 0.0
2016-Jun-27 19:33N 39°53' W 075°11'0 0.0
2016-Jun-27 18:33N 39°53' W 075°11'0 0.0
2016-Jun-27 17:33N 39°53' W 075°11'0 0.0
2016-Jun-27 16:33N 39°53' W 075°11'0 0.0
2016-Jun-27 15:33N 39°53' W 075°11'0 0.0
2016-Jun-27 14:33N 39°53' W 075°11'5 4.6
2016-Jun-27 13:34N 39°57' W 075°08'3 2.7
2016-Jun-27 12:33N 39°59' W 075°05'0 0.1
2016-Jun-27 11:34N 39°59' W 075°05'0 0.0
2016-Jun-27 10:33N 39°59' W 075°05'0 0.0
2016-Jun-27 09:33N 39°59' W 075°05'0 0.0
2016-Jun-27 08:33N 39°59' W 075°05'0 0.0
2016-Jun-27 07:34N 39°59' W 075°05'0 0.0
2016-Jun-27 06:33N 39°59' W 075°05'0 0.0
2016-Jun-27 05:33N 39°59' W 075°05'0 0.0
2016-Jun-27 04:33N 39°59' W 075°05'0 0.0
2016-Jun-27 03:33N 39°59' W 075°05'0 0.0
2016-Jun-27 02:33N 39°59' W 075°05'0 0.0
2016-Jun-27 01:33N 39°59' W 075°05'0 0.0
2016-Jun-27 00:33N 39°59' W 075°05'0 0.4
2016-Jun-26 23:33N 39°58' W 075°06'0 0.1
2016-Jun-26 22:33N 39°59' W 075°06'0 0.0
2016-Jun-26 21:33N 39°59' W 075°06'0 0.0
2016-Jun-26 20:33N 39°59' W 075°06'0 0.0
2016-Jun-26 19:33N 39°59' W 075°06'0 0.0
2016-Jun-26 18:33N 39°59' W 075°06'4 4.4
2016-Jun-26 17:33N 39°55' W 075°08'3 2.9
2016-Jun-26 16:33N 39°53' W 075°11'0 0.0
2016-Jun-26 15:33N 39°53' W 075°11'0 0.0
2016-Jun-26 14:33N 39°53' W 075°11'0 0.0
2016-Jun-26 13:33N 39°53' W 075°11'0 0.0
2016-Jun-26 12:33N 39°53' W 075°11'2 2.0
2016-Jun-26 11:33N 39°55' W 075°13'2 2.1
2016-Jun-26 10:33N 39°53' W 075°12'1 0.8
2016-Jun-26 09:33N 39°53' W 075°11'0 0.0
2016-Jun-26 08:33N 39°53' W 075°11'0 0.0
2016-Jun-26 07:33N 39°53' W 075°11'0 0.0
2016-Jun-26 06:33N 39°53' W 075°11'0 0.0
2016-Jun-26 05:33N 39°53' W 075°11'0 0.0
2016-Jun-26 04:33N 39°53' W 075°11'1 1.3
2016-Jun-26 03:33N 39°53' W 075°10'1 0.7
2016-Jun-26 02:33N 39°53' W 075°10'1 0.6
2016-Jun-26 01:33N 39°53' W 075°11'0 0.0
2016-Jun-26 00:33N 39°53' W 075°11'0 0.0
2016-Jun-25 23:33N 39°53' W 075°11'0 0.0
2016-Jun-25 22:33N 39°53' W 075°11'0 0.0
2016-Jun-25 21:33N 39°53' W 075°11'0 0.0
2016-Jun-25 20:33N 39°53' W 075°11'0 0.0
2016-Jun-25 19:33N 39°53' W 075°11'0 0.0
2016-Jun-25 18:33N 39°53' W 075°11'0 0.0
2016-Jun-25 17:33N 39°53' W 075°11'0 0.0
2016-Jun-25 16:33N 39°53' W 075°11'0 0.0
2016-Jun-25 15:33N 39°53' W 075°11'0 0.0
2016-Jun-25 14:33N 39°53' W 075°11'0 0.0
2016-Jun-25 13:33N 39°53' W 075°11'0 0.0
2016-Jun-25 12:33N 39°53' W 075°11'2 2.1
2016-Jun-25 11:33N 39°53' W 075°08'6 5.5
2016-Jun-25 10:33N 39°59' W 075°06'0 0.0
2016-Jun-25 09:33N 39°59' W 075°06'0 0.0
2016-Jun-25 08:33N 39°59' W 075°06'0 0.0
2016-Jun-25 07:33N 39°59' W 075°06'0 0.0
2016-Jun-25 06:33N 39°59' W 075°06'0 0.0
2016-Jun-25 05:33N 39°59' W 075°06'0 0.2
2016-Jun-25 04:33N 39°58' W 075°06'7 6.6
2016-Jun-25 03:33N 39°53' W 075°11'0 0.0
2016-Jun-25 02:33N 39°53' W 075°11'0 0.0
2016-Jun-25 01:33N 39°53' W 075°11'0 0.0
2016-Jun-25 00:33N 39°53' W 075°11'0 0.0
2016-Jun-24 23:33N 39°53' W 075°11'0 0.0
2016-Jun-24 22:33N 39°53' W 075°11'0 0.0
2016-Jun-24 21:33N 39°53' W 075°11'6 6.1
2016-Jun-24 20:33N 39°51' W 075°19'2 1.5
2016-Jun-24 19:33N 39°51' W 075°21'0 0.0
2016-Jun-24 18:33N 39°51' W 075°21'4 4.2
2016-Jun-24 17:33N 39°48' W 075°25'5 5.0
2016-Jun-24 16:33N 39°51' W 075°19'7 6.6
2016-Jun-24 15:33N 39°53' W 075°11'0 0.0
2016-Jun-24 14:33N 39°53' W 075°11'0 0.0
2016-Jun-24 13:33N 39°53' W 075°11'0 0.0
2016-Jun-24 12:33N 39°53' W 075°11'0 0.0
2016-Jun-24 11:33N 39°53' W 075°11'0 0.0
2016-Jun-24 10:33N 39°53' W 075°11'0 0.0
2016-Jun-24 09:33N 39°53' W 075°11'0 0.0
2016-Jun-24 08:33N 39°53' W 075°11'0 0.0
2016-Jun-24 07:33N 39°53' W 075°11'0 0.0
2016-Jun-24 04:33N 39°53' W 075°11'0 0.0
2016-Jun-24 03:33N 39°53' W 075°11'2 1.8
2016-Jun-24 02:33N 39°52' W 075°13'1 0.6
2016-Jun-24 01:33N 39°52' W 075°14'2 1.8
2016-Jun-24 00:33N 39°51' W 075°16'0 0.0
2016-Jun-23 23:33N 39°51' W 075°16'0 0.0
2016-Jun-23 22:33N 39°51' W 075°16'0 0.0
2016-Jun-23 21:33N 39°51' W 075°16'0 0.0
2016-Jun-23 20:33N 39°51' W 075°16'0 0.0
2016-Jun-23 19:33N 39°51' W 075°16'0 0.0
2016-Jun-23 18:33N 39°51' W 075°16'0 0.0
2016-Jun-23 17:33N 39°51' W 075°16'8 8.1
2016-Jun-23 16:34N 39°48' W 075°26'6 5.8
2016-Jun-23 15:33N 39°51' W 075°19'3 2.6
2016-Jun-23 14:33N 39°51' W 075°16'0 0.0
2016-Jun-23 13:33N 39°51' W 075°16'0 0.0
2016-Jun-23 12:33N 39°51' W 075°16'0 0.4
2016-Jun-23 11:33N 39°51' W 075°16'0 0.0
2016-Jun-23 10:33N 39°51' W 075°16'1 1.0
2016-Jun-23 09:33N 39°51' W 075°17'5 5.4
2016-Jun-23 08:33N 39°53' W 075°11'0 0.0
2016-Jun-23 07:34N 39°53' W 075°11'0 0.0
2016-Jun-23 05:33N 39°53' W 075°11'0 0.0
2016-Jun-23 04:33N 39°53' W 075°11'0 0.0
2016-Jun-23 03:34N 39°53' W 075°11'0 0.0
2016-Jun-23 02:34N 39°53' W 075°11'1 1.3
2016-Jun-23 01:33N 39°53' W 075°09'2 1.8
2016-Jun-23 00:33N 39°54' W 075°08'0 0.0
2016-Jun-22 23:33N 39°54' W 075°08'0 0.3
2016-Jun-22 22:33N 39°54' W 075°08'3 3.4
2016-Jun-22 21:33N 39°58' W 075°08'2 2.2
2016-Jun-22 20:33N 39°59' W 075°05'0 0.2
2016-Jun-22 19:33N 39°59' W 075°06'3 2.8
2016-Jun-22 18:33N 39°57' W 075°08'3 2.8
2016-Jun-22 17:33N 39°54' W 075°08'0 0.0
2016-Jun-22 16:33N 39°54' W 075°08'0 0.0
2016-Jun-22 15:33N 39°54' W 075°08'0 0.0
2016-Jun-22 14:33N 39°54' W 075°08'0 0.0
2016-Jun-22 13:33N 39°54' W 075°08'0 0.0
2016-Jun-22 12:33N 39°54' W 075°08'0 0.0
2016-Jun-22 11:33N 39°54' W 075°08'1 0.5
2016-Jun-22 10:33N 39°53' W 075°08'1 0.5
2016-Jun-22 09:33N 39°54' W 075°08'0 0.0
2016-Jun-22 08:33N 39°54' W 075°08'0 0.0
2016-Jun-22 07:33N 39°54' W 075°08'0 0.0
2016-Jun-22 06:33N 39°54' W 075°08'0 0.0
2016-Jun-22 05:33N 39°54' W 075°08'3 2.6
2016-Jun-22 04:33N 39°53' W 075°12'1 0.5
2016-Jun-22 03:33N 39°53' W 075°11'0 0.0
2016-Jun-22 02:33N 39°53' W 075°11'0 0.0
2016-Jun-22 01:33N 39°53' W 075°11'0 0.0
2016-Jun-22 00:33N 39°53' W 075°11'0 0.0
2016-Jun-21 23:33N 39°53' W 075°11'0 0.0
2016-Jun-21 22:33N 39°53' W 075°11'0 0.0
2016-Jun-21 21:33N 39°53' W 075°11'0 0.0
2016-Jun-21 20:33N 39°53' W 075°11'0 0.0
2016-Jun-21 19:33N 39°53' W 075°11'0 0.0
2016-Jun-21 18:33N 39°53' W 075°11'0 0.0
2016-Jun-21 17:33N 39°53' W 075°11'0 0.0
2016-Jun-21 16:33N 39°53' W 075°11'0 0.0
2016-Jun-21 15:33N 39°53' W 075°11'0 0.0
2016-Jun-21 14:33N 39°53' W 075°11'0 0.0
2016-Jun-21 13:33N 39°53' W 075°11'0 0.0
2016-Jun-21 12:33N 39°53' W 075°11'0 0.0
2016-Jun-21 11:33N 39°53' W 075°11'0 0.0
2016-Jun-21 10:33N 39°53' W 075°11'0 0.0
2016-Jun-21 09:33N 39°53' W 075°11'0 0.0
2016-Jun-21 08:33N 39°53' W 075°11'0 0.0
2016-Jun-21 07:33N 39°53' W 075°11'0 0.0
2016-Jun-21 05:33N 39°53' W 075°11'0 0.0
2016-Jun-21 04:33N 39°53' W 075°11'0 0.0
2016-Jun-21 03:33N 39°53' W 075°11'0 0.0
2016-Jun-21 02:33N 39°53' W 075°11'0 0.0
2016-Jun-21 01:33N 39°53' W 075°11'0 0.0
2016-Jun-21 00:33N 39°53' W 075°11'0 0.0
2016-Jun-20 23:33N 39°53' W 075°11'0 0.0
2016-Jun-20 22:33N 39°53' W 075°11'2 1.7
2016-Jun-20 21:33N 39°53' W 075°09'2 1.7
2016-Jun-20 20:33N 39°53' W 075°11'0 0.0
2016-Jun-20 19:33N 39°53' W 075°11'0 0.0
2016-Jun-20 18:33N 39°53' W 075°11'1 1.5
2016-Jun-20 17:33N 39°52' W 075°13'1212.5
2016-Jun-20 16:33N 39°47' W 075°27'5 2.5
2016-Jun-20 14:33N 39°43' W 075°31'0 0.0
2016-Jun-20 13:33N 39°43' W 075°31'0 0.0
2016-Jun-20 12:33N 39°43' W 075°31'10 9.6
2016-Jun-20 11:33N 39°50' W 075°22'1211.7
2016-Jun-20 10:33N 39°54' W 075°08'6 5.7
2016-Jun-20 09:33N 39°59' W 075°04'1 0.9
2016-Jun-20 08:33N 39°59' W 075°05'0 0.0
2016-Jun-20 07:33N 39°59' W 075°05'0 0.0
2016-Jun-20 06:33N 39°59' W 075°05'0 0.0
2016-Jun-20 05:33N 39°59' W 075°05'0 0.0
2016-Jun-20 04:33N 39°59' W 075°05'0 0.0
2016-Jun-20 03:33N 39°59' W 075°05'4 3.8
2016-Jun-20 02:33N 39°56' W 075°08'3 3.3
2016-Jun-20 01:33N 39°53' W 075°11'0 0.0
2016-Jun-20 00:33N 39°53' W 075°11'0 0.0
2016-Jun-19 23:33N 39°53' W 075°11'0 0.0
2016-Jun-19 22:33N 39°53' W 075°11'0 0.0
2016-Jun-19 21:33N 39°53' W 075°11'0 0.0
2016-Jun-19 20:33N 39°53' W 075°11'0 0.0
2016-Jun-19 19:33N 39°53' W 075°11'0 0.0
2016-Jun-19 18:33N 39°53' W 075°11'0 0.0
2016-Jun-19 17:33N 39°53' W 075°11'0 0.0
2016-Jun-19 16:33N 39°53' W 075°11'2 1.6
2016-Jun-19 15:33N 39°54' W 075°13'1 1.1
2016-Jun-19 14:33N 39°55' W 075°12'0 0.0
2016-Jun-19 13:33N 39°55' W 075°12'0 0.0
2016-Jun-19 12:33N 39°55' W 075°12'0 0.0
2016-Jun-19 11:33N 39°55' W 075°12'0 0.0
2016-Jun-19 10:33N 39°55' W 075°12'0 0.0
2016-Jun-19 09:33N 39°55' W 075°12'0 0.0
2016-Jun-19 08:33N 39°55' W 075°12'0 0.0
2016-Jun-19 07:33N 39°55' W 075°12'0 0.0
2016-Jun-19 06:33N 39°55' W 075°12'0 0.0
2016-Jun-19 05:33N 39°55' W 075°12'0 0.0
2016-Jun-19 04:33N 39°55' W 075°12'0 0.0
2016-Jun-19 03:33N 39°55' W 075°12'2 1.7
2016-Jun-19 02:33N 39°53' W 075°12'2 2.0
2016-Jun-19 01:34N 39°53' W 075°09'0 0.1
2016-Jun-19 00:33N 39°53' W 075°09'1 1.5
2016-Jun-18 23:33N 39°53' W 075°11'0 0.0
2016-Jun-18 22:33N 39°53' W 075°11'0 0.0
2016-Jun-18 21:33N 39°53' W 075°11'0 0.0
2016-Jun-18 20:33N 39°53' W 075°11'0 0.0
2016-Jun-18 19:33N 39°53' W 075°11'0 0.0
2016-Jun-18 18:33N 39°53' W 075°11'0 0.0
2016-Jun-18 17:34N 39°53' W 075°11'0 0.0
2016-Jun-18 16:33N 39°53' W 075°11'0 0.0
2016-Jun-18 15:33N 39°53' W 075°11'0 0.0
2016-Jun-18 14:33N 39°53' W 075°11'  

Dump ship's entire track history